sensor_id;sensor_type;location;lat;lon;timestamp;pressure;altitude;pressure_sealevel;temperature;humidity
47742;BME280;33504;52.066;6.096;2023-02-13T00:00:15;103722.51;;;10.75;42.77
47742;BME280;33504;52.066;6.096;2023-02-13T00:02:42;103718.84;;;10.73;42.87
47742;BME280;33504;52.066;6.096;2023-02-13T00:05:10;103715.53;;;10.69;42.79
47742;BME280;33504;52.066;6.096;2023-02-13T00:07:37;103717.79;;;10.42;42.80
47742;BME280;33504;52.066;6.096;2023-02-13T00:10:06;103718.24;;;10.13;42.89
47742;BME280;33504;52.066;6.096;2023-02-13T00:12:33;103714.89;;;10.57;42.88
47742;BME280;33504;52.066;6.096;2023-02-13T00:15:01;103715.14;;;10.50;42.81
47742;BME280;33504;52.066;6.096;2023-02-13T00:17:29;103711.08;;;10.43;42.80
47742;BME280;33504;52.066;6.096;2023-02-13T00:19:55;103707.93;;;10.37;42.83
47742;BME280;33504;52.066;6.096;2023-02-13T00:22:24;103708.80;;;10.29;42.88
47742;BME280;33504;52.066;6.096;2023-02-13T00:24:51;103707.72;;;10.25;43.00
47742;BME280;33504;52.066;6.096;2023-02-13T00:27:18;103710.68;;;10.21;43.05
47742;BME280;33504;52.066;6.096;2023-02-13T00:29:45;103704.45;;;10.17;43.08
47742;BME280;33504;52.066;6.096;2023-02-13T00:32:13;103703.10;;;10.12;43.14
47742;BME280;33504;52.066;6.096;2023-02-13T00:34:40;103701.02;;;10.14;43.25
47742;BME280;33504;52.066;6.096;2023-02-13T00:37:07;103697.96;;;10.14;43.30
47742;BME280;33504;52.066;6.096;2023-02-13T00:39:34;103693.38;;;10.13;43.32
47742;BME280;33504;52.066;6.096;2023-02-13T00:42:02;103692.04;;;10.14;43.32
47742;BME280;33504;52.066;6.096;2023-02-13T00:44:28;103689.31;;;10.14;43.37
47742;BME280;33504;52.066;6.096;2023-02-13T00:46:56;103690.75;;;10.14;43.39
47742;BME280;33504;52.066;6.096;2023-02-13T00:49:23;103693.90;;;10.15;43.36
47742;BME280;33504;52.066;6.096;2023-02-13T00:51:51;103695.61;;;10.12;43.28
47742;BME280;33504;52.066;6.096;2023-02-13T00:54:18;103694.42;;;10.08;43.27
47742;BME280;33504;52.066;6.096;2023-02-13T00:56:45;103692.72;;;10.04;43.24
47742;BME280;33504;52.066;6.096;2023-02-13T00:59:12;103692.41;;;10.00;43.28
47742;BME280;33504;52.066;6.096;2023-02-13T01:01:40;103689.90;;;10.01;43.43
47742;BME280;33504;52.066;6.096;2023-02-13T01:04:07;103692.54;;;10.02;43.43
47742;BME280;33504;52.066;6.096;2023-02-13T01:06:34;103694.07;;;10.26;43.41
47742;BME280;33504;52.066;6.096;2023-02-13T01:09:03;103695.39;;;10.01;43.29
47742;BME280;33504;52.066;6.096;2023-02-13T01:11:30;103694.39;;;10.17;43.31
47742;BME280;33504;52.066;6.096;2023-02-13T01:13:57;103694.86;;;9.94;43.34
47742;BME280;33504;52.066;6.096;2023-02-13T01:16:25;103697.74;;;9.94;43.33
47742;BME280;33504;52.066;6.096;2023-02-13T01:18:53;103692.95;;;9.95;43.31
47742;BME280;33504;52.066;6.096;2023-02-13T01:21:21;103693.24;;;10.17;43.32
47742;BME280;33504;52.066;6.096;2023-02-13T01:23:49;103688.55;;;9.94;43.29
47742;BME280;33504;52.066;6.096;2023-02-13T01:26:19;103687.22;;;9.94;43.34
47742;BME280;33504;52.066;6.096;2023-02-13T01:28:46;103685.03;;;10.15;43.35
47742;BME280;33504;52.066;6.096;2023-02-13T01:31:14;103687.47;;;9.92;43.34
47742;BME280;33504;52.066;6.096;2023-02-13T01:33:41;103686.14;;;9.92;43.38
47742;BME280;33504;52.066;6.096;2023-02-13T01:36:11;103687.87;;;9.92;43.49
47742;BME280;33504;52.066;6.096;2023-02-13T01:38:39;103686.20;;;9.95;43.51
47742;BME280;33504;52.066;6.096;2023-02-13T01:41:07;103687.34;;;9.96;43.58
47742;BME280;33504;52.066;6.096;2023-02-13T01:43:44;103686.11;;;9.97;43.50
47742;BME280;33504;52.066;6.096;2023-02-13T01:46:13;103686.58;;;10.20;43.44
47742;BME280;33504;52.066;6.096;2023-02-13T01:48:42;103681.82;;;9.98;43.43
47742;BME280;33504;52.066;6.096;2023-02-13T01:51:13;103678.77;;;9.98;43.39
47742;BME280;33504;52.066;6.096;2023-02-13T01:53:43;103675.48;;;9.99;43.41
47742;BME280;33504;52.066;6.096;2023-02-13T01:56:14;103673.92;;;10.19;43.39
47742;BME280;33504;52.066;6.096;2023-02-13T01:58:45;103675.73;;;9.92;43.34
47742;BME280;33504;52.066;6.096;2023-02-13T02:01:14;103679.34;;;9.88;43.35
47742;BME280;33504;52.066;6.096;2023-02-13T02:03:45;103676.94;;;9.90;43.38
47742;BME280;33504;52.066;6.096;2023-02-13T02:06:19;103678.02;;;9.66;43.24
47742;BME280;33504;52.066;6.096;2023-02-13T02:08:48;103679.45;;;9.83;43.12
47742;BME280;33504;52.066;6.096;2023-02-13T02:11:24;103679.08;;;9.79;43.26
47742;BME280;33504;52.066;6.096;2023-02-13T02:13:53;103675.83;;;9.81;43.32
47742;BME280;33504;52.066;6.096;2023-02-13T02:16:21;103673.53;;;9.77;43.18
47742;BME280;33504;52.066;6.096;2023-02-13T02:18:48;103672.51;;;9.72;43.19
47742;BME280;33504;52.066;6.096;2023-02-13T02:22:37;103669.58;;;10.67;43.26
47742;BME280;33504;52.066;6.096;2023-02-13T02:25:50;103670.36;;;9.60;43.48
47742;BME280;33504;52.066;6.096;2023-02-13T02:29:31;103673.68;;;10.58;43.64
47742;BME280;33504;52.066;6.096;2023-02-13T02:32:22;103670.69;;;9.82;43.77
47742;BME280;33504;52.066;6.096;2023-02-13T02:34:59;103665.88;;;9.68;43.78
47742;BME280;33504;52.066;6.096;2023-02-13T02:37:45;103663.95;;;9.71;43.69
47742;BME280;33504;52.066;6.096;2023-02-13T02:40:24;103662.01;;;9.71;43.65
47742;BME280;33504;52.066;6.096;2023-02-13T02:43:02;103658.13;;;9.71;43.60
47742;BME280;33504;52.066;6.096;2023-02-13T02:45:37;103656.39;;;9.72;43.63
47742;BME280;33504;52.066;6.096;2023-02-13T02:48:09;103661.25;;;9.73;43.63
47742;BME280;33504;52.066;6.096;2023-02-13T02:50:41;103659.91;;;9.74;43.59
47742;BME280;33504;52.066;6.096;2023-02-13T02:53:17;103661.50;;;9.94;43.61
47742;BME280;33504;52.066;6.096;2023-02-13T02:55:53;103659.81;;;9.95;43.70
47742;BME280;33504;52.066;6.096;2023-02-13T02:58:24;103658.95;;;9.77;43.65
47742;BME280;33504;52.066;6.096;2023-02-13T03:00:56;103656.47;;;10.02;43.69
47742;BME280;33504;52.066;6.096;2023-02-13T03:03:26;103654.91;;;10.02;43.60
47742;BME280;33504;52.066;6.096;2023-02-13T03:05:54;103655.72;;;9.84;43.61
47742;BME280;33504;52.066;6.096;2023-02-13T03:08:22;103653.20;;;10.10;43.59
47742;BME280;33504;52.066;6.096;2023-02-13T03:10:49;103648.62;;;9.92;43.74
47742;BME280;33504;52.066;6.096;2023-02-13T03:13:32;103645.49;;;9.97;43.71
47742;BME280;33504;52.066;6.096;2023-02-13T03:16:02;103644.02;;;9.95;43.64
47742;BME280;33504;52.066;6.096;2023-02-13T03:18:32;103644.03;;;9.95;43.61
47742;BME280;33504;52.066;6.096;2023-02-13T03:21:07;103645.64;;;9.97;43.75
47742;BME280;33504;52.066;6.096;2023-02-13T03:23:44;103648.09;;;10.22;43.76
47742;BME280;33504;52.066;6.096;2023-02-13T03:26:50;103649.43;;;10.70;43.79
47742;BME280;33504;52.066;6.096;2023-02-13T03:29:29;103652.26;;;9.96;43.83
47742;BME280;33504;52.066;6.096;2023-02-13T03:32:07;103652.99;;;9.98;43.79
47742;BME280;33504;52.066;6.096;2023-02-13T03:34:42;103655.41;;;10.22;43.78
47742;BME280;33504;52.066;6.096;2023-02-13T03:37:14;103659.51;;;9.99;43.64
47742;BME280;33504;52.066;6.096;2023-02-13T03:39:48;103658.09;;;9.96;43.54
47742;BME280;33504;52.066;6.096;2023-02-13T03:42:22;103657.87;;;9.93;43.46
47742;BME280;33504;52.066;6.096;2023-02-13T03:44:56;103660.48;;;9.95;43.48
47742;BME280;33504;52.066;6.096;2023-02-13T03:47:25;103660.77;;;10.17;43.44
47742;BME280;33504;52.066;6.096;2023-02-13T03:49:53;103661.15;;;9.95;43.52
47742;BME280;33504;52.066;6.096;2023-02-13T03:52:24;103662.49;;;9.95;43.54
47742;BME280;33504;52.066;6.096;2023-02-13T03:54:55;103665.27;;;9.94;43.52
47742;BME280;33504;52.066;6.096;2023-02-13T03:57:26;103662.45;;;9.94;43.59
47742;BME280;33504;52.066;6.096;2023-02-13T03:59:55;103662.70;;;9.95;43.69
47742;BME280;33504;52.066;6.096;2023-02-13T04:02:29;103664.73;;;9.96;43.67
47742;BME280;33504;52.066;6.096;2023-02-13T04:05:02;103666.69;;;9.95;43.73
47742;BME280;33504;52.066;6.096;2023-02-13T04:07:30;103662.85;;;9.93;43.84
47742;BME280;33504;52.066;6.096;2023-02-13T04:09:59;103663.63;;;9.96;44.02
47742;BME280;33504;52.066;6.096;2023-02-13T04:12:35;103664.64;;;9.95;43.96
47742;BME280;33504;52.066;6.096;2023-02-13T04:15:08;103662.83;;;9.94;43.92
47742;BME280;33504;52.066;6.096;2023-02-13T04:17:40;103663.48;;;9.95;43.93
47742;BME280;33504;52.066;6.096;2023-02-13T04:20:10;103659.58;;;9.96;44.02
47742;BME280;33504;52.066;6.096;2023-02-13T04:22:41;103657.53;;;9.99;44.01
47742;BME280;33504;52.066;6.096;2023-02-13T04:25:10;103657.15;;;9.98;43.90
47742;BME280;33504;52.066;6.096;2023-02-13T04:27:38;103658.68;;;9.97;43.89
47742;BME280;33504;52.066;6.096;2023-02-13T04:30:07;103660.74;;;10.18;43.94
47742;BME280;33504;52.066;6.096;2023-02-13T04:32:35;103656.42;;;9.96;43.94
47742;BME280;33504;52.066;6.096;2023-02-13T04:35:03;103657.90;;;9.94;43.91
47742;BME280;33504;52.066;6.096;2023-02-13T04:37:31;103655.30;;;10.16;43.99
47742;BME280;33504;52.066;6.096;2023-02-13T04:39:58;103660.08;;;9.93;44.02
47742;BME280;33504;52.066;6.096;2023-02-13T04:42:25;103657.56;;;9.92;44.03
47742;BME280;33504;52.066;6.096;2023-02-13T04:44:52;103655.47;;;9.91;44.04
47742;BME280;33504;52.066;6.096;2023-02-13T04:47:19;103657.74;;;9.91;44.13
47742;BME280;33504;52.066;6.096;2023-02-13T04:49:46;103657.90;;;9.91;44.11
47742;BME280;33504;52.066;6.096;2023-02-13T04:52:13;103660.05;;;9.92;44.05
47742;BME280;33504;52.066;6.096;2023-02-13T04:54:40;103660.55;;;9.89;44.03
47742;BME280;33504;52.066;6.096;2023-02-13T04:57:07;103655.99;;;9.87;44.07
47742;BME280;33504;52.066;6.096;2023-02-13T04:59:34;103652.47;;;9.86;44.05
47742;BME280;33504;52.066;6.096;2023-02-13T05:02:02;103649.24;;;9.81;44.06
47742;BME280;33504;52.066;6.096;2023-02-13T05:04:28;103645.77;;;10.02;44.09
47742;BME280;33504;52.066;6.096;2023-02-13T05:06:56;103646.39;;;9.82;43.92
47742;BME280;33504;52.066;6.096;2023-02-13T05:09:23;103645.49;;;9.80;43.91
47742;BME280;33504;52.066;6.096;2023-02-13T05:11:50;103643.30;;;9.82;43.81
47742;BME280;33504;52.066;6.096;2023-02-13T05:14:17;103641.87;;;10.06;43.69
47742;BME280;33504;52.066;6.096;2023-02-13T05:16:44;103640.46;;;9.74;43.61
47742;BME280;33504;52.066;6.096;2023-02-13T05:19:11;103635.65;;;9.73;43.85
47742;BME280;33504;52.066;6.096;2023-02-13T05:21:38;103630.33;;;9.76;43.78
47742;BME280;33504;52.066;6.096;2023-02-13T05:24:06;103631.59;;;9.99;43.79
47742;BME280;33504;52.066;6.096;2023-02-13T05:26:33;103637.67;;;9.75;43.77
47742;BME280;33504;52.066;6.096;2023-02-13T05:29:00;103638.23;;;9.97;43.79
47742;BME280;33504;52.066;6.096;2023-02-13T05:31:27;103632.15;;;9.74;43.78
47742;BME280;33504;52.066;6.096;2023-02-13T05:33:53;103632.63;;;9.75;43.83
47742;BME280;33504;52.066;6.096;2023-02-13T05:36:21;103629.75;;;9.74;43.80
47742;BME280;33504;52.066;6.096;2023-02-13T05:38:48;103635.51;;;9.80;43.78
47742;BME280;33504;52.066;6.096;2023-02-13T05:41:15;103634.45;;;10.05;43.69
47742;BME280;33504;52.066;6.096;2023-02-13T05:43:42;103634.34;;;9.83;43.75
47742;BME280;33504;52.066;6.096;2023-02-13T05:46:09;103633.75;;;9.88;43.76
47742;BME280;33504;52.066;6.096;2023-02-13T05:48:36;103637.50;;;9.89;43.72
47742;BME280;33504;52.066;6.096;2023-02-13T05:51:04;103634.59;;;9.90;43.74
47742;BME280;33504;52.066;6.096;2023-02-13T05:53:31;103633.82;;;9.93;43.69
47742;BME280;33504;52.066;6.096;2023-02-13T05:55:59;103634.60;;;9.95;43.68
47742;BME280;33504;52.066;6.096;2023-02-13T05:58:27;103638.69;;;9.98;43.70
47742;BME280;33504;52.066;6.096;2023-02-13T06:00:55;103635.77;;;9.98;43.84
47742;BME280;33504;52.066;6.096;2023-02-13T06:03:23;103634.51;;;10.00;43.81
47742;BME280;33504;52.066;6.096;2023-02-13T06:05:50;103633.85;;;10.02;43.72
47742;BME280;33504;52.066;6.096;2023-02-13T06:08:18;103630.91;;;10.22;43.85
47742;BME280;33504;52.066;6.096;2023-02-13T06:10:45;103632.68;;;10.00;43.94
47742;BME280;33504;52.066;6.096;2023-02-13T06:13:12;103630.71;;;9.98;43.85
47742;BME280;33504;52.066;6.096;2023-02-13T06:15:40;103633.37;;;9.96;43.89
47742;BME280;33504;52.066;6.096;2023-02-13T06:18:07;103634.16;;;10.15;43.99
47742;BME280;33504;52.066;6.096;2023-02-13T06:20:35;103632.34;;;9.89;44.03
47742;BME280;33504;52.066;6.096;2023-02-13T06:23:02;103634.03;;;9.85;44.05
47742;BME280;33504;52.066;6.096;2023-02-13T06:25:29;103631.43;;;9.82;44.21
47742;BME280;33504;52.066;6.096;2023-02-13T06:27:56;103628.71;;;10.02;44.24
47742;BME280;33504;52.066;6.096;2023-02-13T06:30:24;103635.24;;;9.99;44.31
47742;BME280;33504;52.066;6.096;2023-02-13T06:32:51;103636.17;;;9.75;44.33
47742;BME280;33504;52.066;6.096;2023-02-13T06:35:18;103635.62;;;9.75;44.43
47742;BME280;33504;52.066;6.096;2023-02-13T06:37:46;103638.60;;;9.75;44.48
47742;BME280;33504;52.066;6.096;2023-02-13T06:40:14;103647.01;;;9.73;44.63
47742;BME280;33504;52.066;6.096;2023-02-13T06:42:42;103647.98;;;9.71;44.67
47742;BME280;33504;52.066;6.096;2023-02-13T06:45:11;103647.43;;;9.96;44.64
47742;BME280;33504;52.066;6.096;2023-02-13T06:47:40;103643.96;;;9.73;44.66
47742;BME280;33504;52.066;6.096;2023-02-13T06:50:08;103645.85;;;9.95;44.75
47742;BME280;33504;52.066;6.096;2023-02-13T06:52:36;103646.35;;;9.72;44.76
47742;BME280;33504;52.066;6.096;2023-02-13T06:55:04;103649.74;;;9.72;44.73
47742;BME280;33504;52.066;6.096;2023-02-13T06:57:32;103650.68;;;9.69;44.74
47742;BME280;33504;52.066;6.096;2023-02-13T07:00:05;103652.99;;;9.70;44.79
47742;BME280;33504;52.066;6.096;2023-02-13T07:02:32;103657.14;;;9.68;44.67
47742;BME280;33504;52.066;6.096;2023-02-13T07:04:59;103661.37;;;9.67;44.60
47742;BME280;33504;52.066;6.096;2023-02-13T07:07:26;103661.78;;;9.85;44.69
47742;BME280;33504;52.066;6.096;2023-02-13T07:09:53;103667.40;;;9.61;44.76
47742;BME280;33504;52.066;6.096;2023-02-13T07:12:20;103669.72;;;9.84;44.78
47742;BME280;33504;52.066;6.096;2023-02-13T07:14:47;103674.49;;;9.67;44.82
47742;BME280;33504;52.066;6.096;2023-02-13T07:17:14;103675.27;;;9.70;44.74
47742;BME280;33504;52.066;6.096;2023-02-13T07:19:41;103678.52;;;9.71;44.68
47742;BME280;33504;52.066;6.096;2023-02-13T07:22:09;103682.03;;;9.73;44.73
47742;BME280;33504;52.066;6.096;2023-02-13T07:24:35;103681.52;;;9.95;44.73
47742;BME280;33504;52.066;6.096;2023-02-13T07:27:03;103683.25;;;10.24;44.73
47742;BME280;33504;52.066;6.096;2023-02-13T07:29:30;103682.37;;;10.03;44.66
47742;BME280;33504;52.066;6.096;2023-02-13T07:31:58;103681.90;;;9.82;44.66
47742;BME280;33504;52.066;6.096;2023-02-13T07:34:25;103681.65;;;9.84;44.64
47742;BME280;33504;52.066;6.096;2023-02-13T07:36:52;103685.54;;;9.86;44.56
47742;BME280;33504;52.066;6.096;2023-02-13T07:39:18;103682.02;;;9.90;44.58
47742;BME280;33504;52.066;6.096;2023-02-13T07:41:46;103684.42;;;10.15;44.55
47742;BME280;33504;52.066;6.096;2023-02-13T07:44:13;103685.28;;;9.99;44.56
47742;BME280;33504;52.066;6.096;2023-02-13T07:46:40;103687.81;;;10.25;44.55
47742;BME280;33504;52.066;6.096;2023-02-13T07:49:07;103689.80;;;10.06;44.50
47742;BME280;33504;52.066;6.096;2023-02-13T07:51:34;103689.27;;;10.08;44.44
47742;BME280;33504;52.066;6.096;2023-02-13T07:54:01;103692.44;;;10.13;44.41
47742;BME280;33504;52.066;6.096;2023-02-13T07:56:28;103698.08;;;10.16;44.38
47742;BME280;33504;52.066;6.096;2023-02-13T07:58:56;103701.93;;;10.21;44.41
47742;BME280;33504;52.066;6.096;2023-02-13T08:01:23;103700.53;;;10.21;44.40
47742;BME280;33504;52.066;6.096;2023-02-13T08:03:50;103701.03;;;10.24;44.43
47742;BME280;33504;52.066;6.096;2023-02-13T08:06:18;103702.26;;;10.32;44.43
47742;BME280;33504;52.066;6.096;2023-02-13T08:08:46;103703.70;;;10.37;44.38
47742;BME280;33504;52.066;6.096;2023-02-13T08:11:22;103703.81;;;10.43;44.43
47742;BME280;33504;52.066;6.096;2023-02-13T08:13:50;103702.80;;;10.46;44.48
47742;BME280;33504;52.066;6.096;2023-02-13T08:16:17;103702.91;;;10.52;44.56
47742;BME280;33504;52.066;6.096;2023-02-13T08:18:44;103700.86;;;10.54;44.53
47742;BME280;33504;52.066;6.096;2023-02-13T08:21:11;103699.59;;;10.59;44.46
47742;BME280;33504;52.066;6.096;2023-02-13T08:23:38;103701.04;;;10.61;44.46
47742;BME280;33504;52.066;6.096;2023-02-13T08:26:05;103702.47;;;10.62;44.43
47742;BME280;33504;52.066;6.096;2023-02-13T08:28:32;103704.36;;;10.59;44.46
47742;BME280;33504;52.066;6.096;2023-02-13T08:30:59;103704.66;;;10.61;44.55
47742;BME280;33504;52.066;6.096;2023-02-13T08:33:26;103701.53;;;10.43;44.56
47742;BME280;33504;52.066;6.096;2023-02-13T08:35:53;103700.00;;;10.69;44.54
47742;BME280;33504;52.066;6.096;2023-02-13T08:38:20;103701.32;;;10.50;44.59
47742;BME280;33504;52.066;6.096;2023-02-13T08:40:47;103698.92;;;10.51;44.73
47742;BME280;33504;52.066;6.096;2023-02-13T08:43:14;103697.46;;;10.54;44.75
47742;BME280;33504;52.066;6.096;2023-02-13T08:45:41;103699.66;;;10.33;44.75
47742;BME280;33504;52.066;6.096;2023-02-13T08:48:09;103704.46;;;10.42;44.71
47742;BME280;33504;52.066;6.096;2023-02-13T08:50:36;103703.31;;;10.93;44.75
47742;BME280;33504;52.066;6.096;2023-02-13T08:53:05;103704.31;;;10.47;44.89
47742;BME280;33504;52.066;6.096;2023-02-13T08:55:32;103704.33;;;11.03;45.10
47742;BME280;33504;52.066;6.096;2023-02-13T08:58:00;103705.16;;;11.00;45.19
47742;BME280;33504;52.066;6.096;2023-02-13T09:00:27;103706.46;;;11.09;45.06
47742;BME280;33504;52.066;6.096;2023-02-13T09:02:54;103709.40;;;10.65;45.10
47742;BME280;33504;52.066;6.096;2023-02-13T09:05:22;103708.16;;;11.13;45.02
47742;BME280;33504;52.066;6.096;2023-02-13T09:07:49;103707.18;;;10.95;44.94
47742;BME280;33504;52.066;6.096;2023-02-13T09:10:16;103703.99;;;10.72;44.78
47742;BME280;33504;52.066;6.096;2023-02-13T09:12:44;103701.71;;;10.72;44.78
47742;BME280;33504;52.066;6.096;2023-02-13T09:15:17;103704.69;;;10.95;44.88
47742;BME280;33504;52.066;6.096;2023-02-13T09:17:45;103702.40;;;10.68;45.08
47742;BME280;33504;52.066;6.096;2023-02-13T09:20:13;103701.91;;;10.66;44.95
47742;BME280;33504;52.066;6.096;2023-02-13T09:22:41;103704.41;;;10.93;44.64
47742;BME280;33504;52.066;6.096;2023-02-13T09:25:08;103702.89;;;10.79;44.92
47742;BME280;33504;52.066;6.096;2023-02-13T09:27:36;103701.59;;;11.00;44.67
47742;BME280;33504;52.066;6.096;2023-02-13T09:30:05;103700.23;;;11.06;44.63
47742;BME280;33504;52.066;6.096;2023-02-13T09:32:32;103696.76;;;11.27;44.27
47742;BME280;33504;52.066;6.096;2023-02-13T09:34:59;103698.34;;;11.28;44.05
47742;BME280;33504;52.066;6.096;2023-02-13T09:37:26;103698.27;;;11.34;43.92
47742;BME280;33504;52.066;6.096;2023-02-13T09:39:54;103700.63;;;11.46;43.93
47742;BME280;33504;52.066;6.096;2023-02-13T09:42:23;103700.61;;;11.66;43.82
47742;BME280;33504;52.066;6.096;2023-02-13T09:44:53;103699.37;;;11.51;44.29
47742;BME280;33504;52.066;6.096;2023-02-13T09:47:28;103702.76;;;11.74;43.78
47742;BME280;33504;52.066;6.096;2023-02-13T09:50:00;103704.39;;;11.81;43.58
47742;BME280;33504;52.066;6.096;2023-02-13T09:52:32;103704.93;;;11.67;43.45
47742;BME280;33504;52.066;6.096;2023-02-13T09:55:01;103706.45;;;12.00;43.31
47742;BME280;33504;52.066;6.096;2023-02-13T09:57:33;103705.54;;;12.17;42.97
47742;BME280;33504;52.066;6.096;2023-02-13T10:00:06;103702.00;;;12.43;42.82
47742;BME280;33504;52.066;6.096;2023-02-13T10:02:44;103705.29;;;11.82;42.62
47742;BME280;33504;52.066;6.096;2023-02-13T10:05:34;103705.10;;;12.34;42.43
47742;BME280;33504;52.066;6.096;2023-02-13T10:08:07;103707.51;;;12.09;42.40
47742;BME280;33504;52.066;6.096;2023-02-13T10:10:49;103704.74;;;12.40;42.55
47742;BME280;33504;52.066;6.096;2023-02-13T10:13:28;103705.20;;;11.79;42.73
47742;BME280;33504;52.066;6.096;2023-02-13T10:16:02;103701.61;;;11.94;42.31
47742;BME280;33504;52.066;6.096;2023-02-13T10:18:42;103702.01;;;11.76;42.38
47742;BME280;33504;52.066;6.096;2023-02-13T10:21:12;103700.41;;;12.04;42.54
47742;BME280;33504;52.066;6.096;2023-02-13T10:23:43;103703.93;;;11.72;42.36
47742;BME280;33504;52.066;6.096;2023-02-13T10:26:17;103701.24;;;12.18;42.30
47742;BME280;33504;52.066;6.096;2023-02-13T10:28:49;103703.09;;;12.08;42.53
47742;BME280;33504;52.066;6.096;2023-02-13T10:31:21;103703.41;;;12.15;42.57
47742;BME280;33504;52.066;6.096;2023-02-13T10:33:51;103705.13;;;12.35;42.45
47742;BME280;33504;52.066;6.096;2023-02-13T10:36:21;103707.01;;;12.17;41.90
47742;BME280;33504;52.066;6.096;2023-02-13T10:38:56;103706.53;;;12.06;42.40
47742;BME280;33504;52.066;6.096;2023-02-13T10:41:39;103705.18;;;12.65;42.15
47742;BME280;33504;52.066;6.096;2023-02-13T10:44:25;103704.66;;;12.50;41.91
47742;BME280;33504;52.066;6.096;2023-02-13T10:47:07;103703.05;;;12.58;41.90
47742;BME280;33504;52.066;6.096;2023-02-13T10:49:49;103698.16;;;12.85;41.41
47742;BME280;33504;52.066;6.096;2023-02-13T10:52:31;103693.31;;;12.65;41.16
47742;BME280;33504;52.066;6.096;2023-02-13T10:55:14;103690.07;;;12.93;41.34
47742;BME280;33504;52.066;6.096;2023-02-13T10:58:01;103690.94;;;13.16;41.32
47742;BME280;33504;52.066;6.096;2023-02-13T11:00:34;103692.01;;;13.10;40.90
47742;BME280;33504;52.066;6.096;2023-02-13T11:03:03;103686.36;;;13.07;40.89
47742;BME280;33504;52.066;6.096;2023-02-13T11:05:35;103680.13;;;12.60;41.06
47742;BME280;33504;52.066;6.096;2023-02-13T11:08:16;103674.00;;;12.97;41.18
47742;BME280;33504;52.066;6.096;2023-02-13T11:10:43;103668.10;;;13.13;41.00
47742;BME280;33504;52.066;6.096;2023-02-13T11:13:17;103668.07;;;13.20;41.14
47742;BME280;33504;52.066;6.096;2023-02-13T11:15:56;103666.86;;;13.12;41.08
47742;BME280;33504;52.066;6.096;2023-02-13T11:18:26;103662.26;;;13.15;40.85
47742;BME280;33504;52.066;6.096;2023-02-13T11:21:00;103661.60;;;13.49;40.34
47742;BME280;33504;52.066;6.096;2023-02-13T11:23:39;103658.69;;;13.90;39.62
47742;BME280;33504;52.066;6.096;2023-02-13T11:26:10;103653.92;;;13.80;39.33
47742;BME280;33504;52.066;6.096;2023-02-13T11:28:46;103649.55;;;13.66;39.85
47742;BME280;33504;52.066;6.096;2023-02-13T11:31:22;103647.86;;;13.82;39.93
47742;BME280;33504;52.066;6.096;2023-02-13T11:33:50;103646.18;;;13.87;39.74
47742;BME280;33504;52.066;6.096;2023-02-13T11:36:23;103647.19;;;13.68;39.43
47742;BME280;33504;52.066;6.096;2023-02-13T11:39:01;103643.43;;;13.73;39.43
47742;BME280;33504;52.066;6.096;2023-02-13T11:41:31;103643.39;;;14.01;39.85
47742;BME280;33504;52.066;6.096;2023-02-13T11:44:03;103644.78;;;13.58;39.84
47742;BME280;33504;52.066;6.096;2023-02-13T11:46:42;103644.04;;;13.75;39.81
47742;BME280;33504;52.066;6.096;2023-02-13T11:49:18;103643.13;;;13.81;39.50
47742;BME280;33504;52.066;6.096;2023-02-13T11:51:47;103641.17;;;13.67;39.48
47742;BME280;33504;52.066;6.096;2023-02-13T11:54:28;103637.83;;;13.85;39.74
47742;BME280;33504;52.066;6.096;2023-02-13T11:56:57;103637.22;;;13.87;39.47
47742;BME280;33504;52.066;6.096;2023-02-13T11:59:28;103634.95;;;13.85;39.66
47742;BME280;33504;52.066;6.096;2023-02-13T12:02:14;103633.24;;;13.93;39.56
47742;BME280;33504;52.066;6.096;2023-02-13T12:04:41;103627.65;;;13.79;39.49
47742;BME280;33504;52.066;6.096;2023-02-13T12:07:15;103624.84;;;13.69;39.43
47742;BME280;33504;52.066;6.096;2023-02-13T12:09:44;103624.27;;;14.08;39.19
47742;BME280;33504;52.066;6.096;2023-02-13T12:12:17;103618.49;;;15.02;38.43
47742;BME280;33504;52.066;6.096;2023-02-13T12:14:45;103615.95;;;15.51;36.97
47742;BME280;33504;52.066;6.096;2023-02-13T12:17:16;103614.81;;;15.52;36.47
47742;BME280;33504;52.066;6.096;2023-02-13T12:19:45;103618.62;;;15.05;36.86
47742;BME280;33504;52.066;6.096;2023-02-13T12:22:20;103618.73;;;15.55;36.56
47742;BME280;33504;52.066;6.096;2023-02-13T12:25:10;103616.22;;;16.09;36.27
47742;BME280;33504;52.066;6.096;2023-02-13T12:27:46;103617.51;;;16.22;35.92
47742;BME280;33504;52.066;6.096;2023-02-13T12:30:40;103614.70;;;16.49;35.27
47742;BME280;33504;52.066;6.096;2023-02-13T12:33:23;103612.23;;;17.14;34.45
47742;BME280;33504;52.066;6.096;2023-02-13T12:36:00;103612.09;;;16.98;33.82
47742;BME280;33504;52.066;6.096;2023-02-13T12:38:44;103612.57;;;17.18;33.33
47742;BME280;33504;52.066;6.096;2023-02-13T12:41:17;103609.18;;;17.47;33.30
47742;BME280;33504;52.066;6.096;2023-02-13T12:44:10;103603.86;;;17.34;33.59
47742;BME280;33504;52.066;6.096;2023-02-13T12:46:51;103597.86;;;16.87;33.54
47742;BME280;33504;52.066;6.096;2023-02-13T12:49:35;103592.52;;;16.46;33.79
47742;BME280;33504;52.066;6.096;2023-02-13T12:52:17;103586.78;;;16.97;33.93
47742;BME280;33504;52.066;6.096;2023-02-13T12:54:59;103582.31;;;16.90;33.90
47742;BME280;33504;52.066;6.096;2023-02-13T12:57:43;103578.46;;;16.67;33.78
47742;BME280;33504;52.066;6.096;2023-02-13T13:00:24;103575.77;;;16.94;33.51
47742;BME280;33504;52.066;6.096;2023-02-13T13:03:10;103575.78;;;17.44;33.01
47742;BME280;33504;52.066;6.096;2023-02-13T13:05:57;103575.40;;;17.75;32.80
47742;BME280;33504;52.066;6.096;2023-02-13T13:08:41;103567.55;;;17.70;32.85
47742;BME280;33504;52.066;6.096;2023-02-13T13:11:23;103566.11;;;17.90;32.22
47742;BME280;33504;52.066;6.096;2023-02-13T13:14:00;103559.85;;;18.38;31.83
47742;BME280;33504;52.066;6.096;2023-02-13T13:16:38;103559.00;;;18.22;31.24